createdAt,value
2022-09-13T00:00:05.295Z,93.20
2022-09-13T00:00:14.714Z,93.20
2022-09-13T00:00:24.126Z,93.20
2022-09-13T00:00:33.511Z,93.20
2022-09-13T00:00:43.023Z,93.20
2022-09-13T00:00:52.465Z,93.30
2022-09-13T00:01:01.858Z,93.30
2022-09-13T00:01:11.301Z,93.30
2022-09-13T00:01:20.663Z,93.30
2022-09-13T00:01:30.128Z,93.30
2022-09-13T00:01:39.487Z,93.40
2022-09-13T00:01:48.968Z,93.40
2022-09-13T00:01:58.373Z,93.30
2022-09-13T00:02:17.153Z,93.30
2022-09-13T00:02:26.664Z,93.30
2022-09-13T00:02:35.899Z,93.30
2022-09-13T00:02:45.304Z,93.40
2022-09-13T00:02:54.720Z,93.30
2022-09-13T00:03:04.122Z,93.30
2022-09-13T00:03:13.510Z,93.40
2022-09-13T00:03:22.955Z,93.40
2022-09-13T00:03:32.357Z,93.40
2022-09-13T00:03:41.930Z,93.30
2022-09-13T00:03:51.331Z,93.20
2022-09-13T00:04:00.749Z,93.20
2022-09-13T00:04:10.184Z,93.10
2022-09-13T00:04:19.590Z,92.90
2022-09-13T00:04:29.015Z,92.80
2022-09-13T00:04:38.396Z,92.80
2022-09-13T00:04:57.265Z,92.70
2022-09-13T00:05:06.668Z,92.60
2022-09-13T00:05:16.082Z,92.40
2022-09-13T00:05:25.511Z,92.30
2022-09-13T00:05:34.928Z,92.20
2022-09-13T00:05:44.377Z,92.10
2022-09-13T00:05:53.799Z,92.00
2022-09-13T00:06:03.234Z,91.80
2022-09-13T00:06:12.651Z,91.60
2022-09-13T00:06:22.089Z,91.60
2022-09-13T00:06:31.554Z,91.50
2022-09-13T00:06:40.967Z,91.40
2022-09-13T00:06:50.376Z,91.30
2022-09-13T00:06:59.789Z,91.20
2022-09-13T00:07:09.195Z,91.10
2022-09-13T00:07:18.611Z,91.10
2022-09-13T00:07:28.026Z,91.00
2022-09-13T00:07:46.878Z,90.80
2022-09-13T00:07:56.288Z,90.70
2022-09-13T00:08:05.706Z,90.70
2022-09-13T00:08:15.111Z,90.60
2022-09-13T00:08:24.536Z,90.60
2022-09-13T00:08:33.940Z,90.60
2022-09-13T00:08:43.328Z,90.50
2022-09-13T00:08:52.719Z,90.40
2022-09-13T00:09:02.132Z,90.40
2022-09-13T00:09:11.619Z,90.50
2022-09-13T00:09:21.028Z,90.50
2022-09-13T00:09:30.457Z,90.50
2022-09-13T00:09:39.868Z,90.50
2022-09-13T00:09:49.290Z,90.50
2022-09-13T00:09:59.285Z,90.60
2022-09-13T00:10:08.705Z,90.60
2022-09-13T00:10:18.117Z,90.60
2022-09-13T00:10:37.002Z,90.80
2022-09-13T00:10:47.236Z,90.80
2022-09-13T00:10:56.664Z,90.90
2022-09-13T00:11:06.091Z,91.00
2022-09-13T00:11:15.560Z,91.00
2022-09-13T00:11:24.990Z,91.10
2022-09-13T00:11:34.383Z,91.20
2022-09-13T00:11:43.819Z,91.30
2022-09-13T00:11:53.244Z,91.30
2022-09-13T00:12:02.671Z,91.30
2022-09-13T00:12:12.070Z,91.30
2022-09-13T00:12:21.506Z,91.40
2022-09-13T00:12:30.930Z,91.50
2022-09-13T00:12:40.337Z,91.50
2022-09-13T00:12:49.753Z,91.60
2022-09-13T00:12:59.161Z,91.60
2022-09-13T00:13:08.553Z,91.60
2022-09-13T00:13:17.975Z,91.70
2022-09-13T00:13:36.809Z,91.70
2022-09-13T00:13:46.223Z,91.60
2022-09-13T00:13:55.610Z,91.60
2022-09-13T00:14:05.017Z,91.50
2022-09-13T00:14:14.417Z,91.60
2022-09-13T00:14:23.810Z,91.60
2022-09-13T00:14:33.227Z,91.50
2022-09-13T00:14:42.764Z,91.40
2022-09-13T00:14:52.174Z,91.30
2022-09-13T00:15:01.645Z,91.20
2022-09-13T00:15:11.073Z,91.10
2022-09-13T00:15:20.487Z,91.10
2022-09-13T00:15:29.916Z,91.00
2022-09-13T00:15:39.335Z,90.90
2022-09-13T00:15:48.804Z,90.70
2022-09-13T00:15:58.226Z,90.60
2022-09-13T00:16:17.197Z,90.40
2022-09-13T00:16:26.528Z,90.40
2022-09-13T00:16:35.915Z,90.20
2022-09-13T00:16:45.371Z,90.10
2022-09-13T00:16:54.706Z,90.00
2022-09-13T00:17:04.149Z,89.60
2022-09-13T00:17:13.512Z,89.50
2022-09-13T00:17:22.910Z,89.40
2022-09-13T00:17:32.309Z,89.10
2022-09-13T00:17:41.716Z,89.00
2022-09-13T00:17:51.132Z,88.90
2022-09-13T00:18:00.540Z,88.80
2022-09-13T00:18:09.961Z,88.40
2022-09-13T00:18:19.381Z,88.20
2022-09-13T00:18:28.777Z,87.80
2022-09-13T00:18:38.209Z,87.70
2022-09-13T00:18:56.994Z,87.40
2022-09-13T00:19:06.394Z,87.00
2022-09-13T00:19:15.835Z,86.60
2022-09-13T00:19:25.223Z,86.40
2022-09-13T00:19:34.621Z,86.00
2022-09-13T00:19:44.029Z,85.90
2022-09-13T00:19:53.441Z,85.70
2022-09-13T00:20:02.847Z,85.60
2022-09-13T00:20:12.239Z,85.30
2022-09-13T00:20:21.623Z,85.00
2022-09-13T00:20:31.029Z,84.90
2022-09-13T00:20:40.429Z,84.70
2022-09-13T00:20:49.853Z,84.70
2022-09-13T00:20:59.256Z,84.60
2022-09-13T00:21:08.719Z,84.50
2022-09-13T00:21:18.119Z,84.50
2022-09-13T00:21:36.913Z,84.20
2022-09-13T00:21:46.317Z,83.80
2022-09-13T00:21:55.715Z,83.60
2022-09-13T00:22:05.111Z,83.50
2022-09-13T00:22:14.539Z,83.40
2022-09-13T00:22:23.944Z,83.20
2022-09-13T00:22:33.352Z,82.90
2022-09-13T00:22:42.756Z,82.70
2022-09-13T00:22:52.153Z,82.50
2022-09-13T00:23:01.553Z,82.40
2022-09-13T00:23:10.957Z,82.20
2022-09-13T00:23:20.362Z,82.10
2022-09-13T00:23:29.765Z,82.10
2022-09-13T00:23:39.185Z,82.00
2022-09-13T00:23:48.603Z,81.80
2022-09-13T00:23:58.132Z,81.70
2022-09-13T00:24:16.932Z,81.40
2022-09-13T00:24:26.346Z,81.20
2022-09-13T00:24:35.745Z,81.10
2022-09-13T00:24:45.153Z,80.90
2022-09-13T00:24:54.545Z,80.80
2022-09-13T00:25:03.950Z,80.80
2022-09-13T00:25:13.346Z,80.80
2022-09-13T00:25:22.748Z,80.90
2022-09-13T00:25:32.150Z,80.90
2022-09-13T00:25:41.616Z,80.90
2022-09-13T00:25:51.053Z,80.70
2022-09-13T00:26:00.458Z,80.40
2022-09-13T00:26:09.856Z,80.60
2022-09-13T00:26:19.276Z,80.50
2022-09-13T00:26:28.665Z,80.50
2022-09-13T00:26:38.075Z,80.40
2022-09-13T00:26:56.866Z,80.10
2022-09-13T00:27:06.284Z,79.90
2022-09-13T00:27:15.692Z,79.70
2022-09-13T00:27:25.087Z,79.50
2022-09-13T00:27:34.478Z,79.50
2022-09-13T00:27:43.883Z,79.40
2022-09-13T00:27:53.297Z,79.40
2022-09-13T00:28:02.722Z,79.40
2022-09-13T00:28:12.129Z,79.40
2022-09-13T00:28:21.567Z,79.30
2022-09-13T00:28:30.981Z,79.20
2022-09-13T00:28:40.381Z,79.20
2022-09-13T00:28:49.798Z,79.30
2022-09-13T00:28:59.171Z,79.50
2022-09-13T00:29:08.584Z,79.50
2022-09-13T00:29:17.975Z,79.50
2022-09-13T00:29:36.770Z,79.50
2022-09-13T00:29:46.208Z,79.60
2022-09-13T00:29:55.663Z,79.70
2022-09-13T00:30:05.075Z,79.70
2022-09-13T00:30:14.479Z,79.60
2022-09-13T00:30:23.906Z,79.60
2022-09-13T00:30:33.329Z,79.60
2022-09-13T00:30:42.748Z,79.40
2022-09-13T00:30:52.179Z,79.20
2022-09-13T00:31:01.584Z,79.20
2022-09-13T00:31:10.973Z,79.00
2022-09-13T00:31:20.442Z,78.90
2022-09-13T00:31:29.828Z,78.70
2022-09-13T00:31:39.204Z,78.90
2022-09-13T00:31:48.649Z,78.90
2022-09-13T00:31:58.072Z,79.00
2022-09-13T00:32:16.861Z,78.90
2022-09-13T00:32:26.248Z,78.80
2022-09-13T00:32:35.656Z,78.80
2022-09-13T00:32:45.043Z,78.80
2022-09-13T00:32:54.439Z,78.80
2022-09-13T00:33:03.867Z,78.80
2022-09-13T00:33:13.277Z,78.70
2022-09-13T00:33:22.667Z,78.80
2022-09-13T00:33:32.084Z,78.90
2022-09-13T00:33:41.550Z,78.90
2022-09-13T00:33:50.961Z,79.00
2022-09-13T00:34:00.357Z,79.00
2022-09-13T00:34:09.770Z,79.00
2022-09-13T00:34:19.190Z,79.00
2022-09-13T00:34:28.612Z,79.00
2022-09-13T00:34:38.073Z,79.00
2022-09-13T00:34:56.878Z,79.10
2022-09-13T00:35:06.293Z,79.00
2022-09-13T00:35:15.717Z,79.00
2022-09-13T00:35:25.133Z,78.90
2022-09-13T00:35:34.557Z,78.80
2022-09-13T00:35:43.964Z,78.70
2022-09-13T00:35:53.379Z,78.70
2022-09-13T00:36:02.831Z,78.60
2022-09-13T00:36:12.249Z,78.50
2022-09-13T00:36:21.671Z,78.50
2022-09-13T00:36:31.091Z,78.50
2022-09-13T00:36:40.503Z,78.40
2022-09-13T00:36:49.924Z,78.40
2022-09-13T00:37:33.689Z,78.30
2022-09-13T00:37:43.084Z,78.20
2022-09-13T00:37:52.493Z,78.30
2022-09-13T00:38:01.923Z,78.20
2022-09-13T00:38:11.336Z,78.10
2022-09-13T00:38:20.756Z,77.80
2022-09-13T00:38:30.172Z,77.60
2022-09-13T00:38:39.598Z,77.50
2022-09-13T00:38:49.016Z,77.40
2022-09-13T00:38:58.438Z,77.50
2022-09-13T00:39:07.863Z,77.40
2022-09-13T00:39:17.285Z,77.40
2022-09-13T00:39:26.700Z,77.50
2022-09-13T00:39:36.122Z,77.50
2022-09-13T00:39:49.214Z,77.60
2022-09-13T00:39:55.129Z,77.70
2022-09-13T00:40:04.543Z,77.80
2022-09-13T00:40:14.026Z,77.80
2022-09-13T00:40:23.396Z,77.80
2022-09-13T00:40:32.745Z,77.90
2022-09-13T00:40:42.168Z,78.10
2022-09-13T00:40:51.586Z,78.20
2022-09-13T00:41:01.087Z,78.30
2022-09-13T00:41:10.505Z,78.30
2022-09-13T00:41:19.962Z,78.40
2022-09-13T00:41:29.377Z,78.60
2022-09-13T00:41:38.795Z,78.70
2022-09-13T00:41:48.218Z,78.80
2022-09-13T00:41:57.617Z,79.00
2022-09-13T00:42:07.017Z,79.10
2022-09-13T00:42:16.420Z,79.30
2022-09-13T00:42:25.846Z,79.40
2022-09-13T00:42:35.259Z,79.50
2022-09-13T00:42:44.661Z,79.60
2022-09-13T00:42:54.060Z,79.70
2022-09-13T00:43:03.487Z,79.80
2022-09-13T00:43:12.943Z,80.00
2022-09-13T00:43:22.365Z,80.20
2022-09-13T00:43:31.793Z,80.40
2022-09-13T00:43:41.197Z,80.50
2022-09-13T00:43:50.599Z,80.60
2022-09-13T00:44:00.008Z,80.90
2022-09-13T00:44:09.428Z,81.10
2022-09-13T00:44:18.850Z,81.30
2022-09-13T00:44:28.270Z,81.40
2022-09-13T00:44:47.113Z,81.90
2022-09-13T00:44:56.520Z,82.10
2022-09-13T00:45:05.963Z,82.40
2022-09-13T00:45:15.379Z,82.40
2022-09-13T00:45:24.894Z,82.40
2022-09-13T00:45:34.249Z,82.70
2022-09-13T00:45:43.700Z,82.90
2022-09-13T00:45:53.212Z,83.10
2022-09-13T00:46:02.671Z,83.30
2022-09-13T00:46:12.034Z,83.50
2022-09-13T00:46:21.460Z,83.70
2022-09-13T00:46:30.895Z,83.80
2022-09-13T00:46:40.293Z,84.00
2022-09-13T00:46:49.706Z,84.10
2022-09-13T00:46:59.120Z,84.30
2022-09-13T00:47:08.515Z,84.40
2022-09-13T00:47:17.936Z,84.50
2022-09-13T00:47:36.745Z,84.50
2022-09-13T00:47:46.129Z,84.50
2022-09-13T00:47:55.531Z,84.50
2022-09-13T00:48:04.950Z,84.60
2022-09-13T00:48:14.369Z,84.40
2022-09-13T00:48:23.815Z,84.30
2022-09-13T00:48:33.215Z,84.20
2022-09-13T00:48:42.630Z,84.00
2022-09-13T00:48:52.008Z,83.90
2022-09-13T00:49:01.429Z,83.80
2022-09-13T00:49:10.851Z,83.70
2022-09-13T00:49:20.319Z,83.60
2022-09-13T00:49:29.736Z,83.60
2022-09-13T00:49:39.126Z,83.50
2022-09-13T00:49:48.524Z,83.50
2022-09-13T00:50:07.335Z,83.40
2022-09-13T00:50:16.737Z,83.30
2022-09-13T00:50:26.137Z,83.10
2022-09-13T00:50:35.532Z,83.00
2022-09-13T00:50:44.957Z,82.80
2022-09-13T00:50:54.364Z,82.70
2022-09-13T00:51:03.775Z,82.60
2022-09-13T00:51:13.198Z,82.40
2022-09-13T00:51:22.593Z,82.10
2022-09-13T00:51:32.035Z,81.90
2022-09-13T00:51:41.509Z,81.70
2022-09-13T00:51:51.006Z,81.40
2022-09-13T00:52:00.430Z,81.30
2022-09-13T00:52:09.929Z,81.10
2022-09-13T00:52:19.339Z,80.90
2022-09-13T00:52:28.751Z,80.80
2022-09-13T00:52:38.173Z,80.50
2022-09-13T00:52:56.992Z,80.40
2022-09-13T00:53:06.413Z,80.20
2022-09-13T00:53:15.840Z,80.10
2022-09-13T00:53:25.291Z,80.20
2022-09-13T00:53:34.678Z,80.10
2022-09-13T00:53:44.098Z,80.00
2022-09-13T00:53:53.527Z,79.80
2022-09-13T00:54:02.939Z,79.50
2022-09-13T00:54:12.359Z,79.30
2022-09-13T00:54:21.779Z,79.30
2022-09-13T00:54:31.165Z,79.20
2022-09-13T00:54:40.651Z,79.10
2022-09-13T00:54:50.036Z,79.00
2022-09-13T00:54:59.422Z,79.00
2022-09-13T00:55:08.840Z,78.90
2022-09-13T00:55:18.219Z,78.90
2022-09-13T00:55:37.079Z,78.80
2022-09-13T00:55:46.475Z,78.70
2022-09-13T00:55:55.857Z,78.70
2022-09-13T00:56:05.292Z,78.80
2022-09-13T00:56:14.700Z,78.70
2022-09-13T00:56:24.097Z,78.70
2022-09-13T00:56:33.477Z,78.80
2022-09-13T00:56:42.888Z,78.90
2022-09-13T00:56:52.281Z,78.80
2022-09-13T00:57:01.707Z,78.60
2022-09-13T00:57:11.138Z,78.70
2022-09-13T00:57:20.525Z,78.60
2022-09-13T00:57:29.953Z,78.50
2022-09-13T00:57:39.349Z,78.40
2022-09-13T00:57:48.744Z,78.30
2022-09-13T00:57:58.156Z,78.00
2022-09-13T00:58:16.993Z,77.90
2022-09-13T00:58:26.374Z,77.70
2022-09-13T00:58:35.792Z,77.60
2022-09-13T00:58:45.192Z,77.60
2022-09-13T00:58:54.634Z,77.50
2022-09-13T00:59:04.028Z,77.40
2022-09-13T00:59:13.417Z,77.20
2022-09-13T00:59:22.819Z,77.20
2022-09-13T00:59:32.219Z,77.10
2022-09-13T00:59:41.617Z,77.00
2022-09-13T00:59:51.005Z,76.90
2022-09-13T01:00:00.425Z,76.70
2022-09-13T01:00:09.817Z,76.60
2022-09-13T01:00:19.220Z,76.60
2022-09-13T01:00:28.629Z,76.50
2022-09-13T01:00:38.070Z,76.40
2022-09-13T01:00:57.010Z,76.40
2022-09-13T01:01:06.339Z,76.40
2022-09-13T01:01:15.805Z,76.40
2022-09-13T01:01:25.166Z,76.50
2022-09-13T01:01:34.575Z,76.40
2022-09-13T01:01:44.038Z,76.30
2022-09-13T01:01:53.470Z,76.30
2022-09-13T01:02:02.892Z,76.30
2022-09-13T01:02:12.299Z,76.20
2022-09-13T01:02:21.753Z,76.20
2022-09-13T01:02:31.081Z,76.20
2022-09-13T01:02:40.495Z,76.20
2022-09-13T01:02:49.997Z,76.10
2022-09-13T01:02:59.417Z,76.20
2022-09-13T01:03:08.811Z,76.20
2022-09-13T01:03:18.230Z,76.20
2022-09-13T01:03:37.191Z,76.60
2022-09-13T01:03:46.739Z,76.70
2022-09-13T01:03:56.160Z,76.80
2022-09-13T01:04:08.669Z,76.90
2022-09-13T01:04:15.004Z,77.00
2022-09-13T01:04:24.411Z,77.00
2022-09-13T01:04:33.830Z,77.10
2022-09-13T01:04:43.251Z,77.10
2022-09-13T01:04:52.941Z,77.30
2022-09-13T01:05:02.370Z,77.30
2022-09-13T01:05:12.036Z,77.40
2022-09-13T01:05:21.457Z,77.50
2022-09-13T01:05:30.880Z,77.60
2022-09-13T01:05:40.303Z,77.80
2022-09-13T01:05:49.711Z,77.90
2022-09-13T01:05:59.111Z,78.00
2022-09-13T01:06:08.553Z,78.10
2022-09-13T01:06:17.973Z,78.20
2022-09-13T01:06:36.776Z,78.50
2022-09-13T01:06:46.177Z,78.50
2022-09-13T01:06:55.561Z,78.60
2022-09-13T01:07:04.974Z,78.70
2022-09-13T01:07:14.373Z,78.70
2022-09-13T01:07:23.793Z,78.70
2022-09-13T01:07:33.214Z,78.90
2022-09-13T01:07:42.624Z,79.10
2022-09-13T01:07:52.038Z,79.20
2022-09-13T01:08:01.499Z,79.20
2022-09-13T01:08:10.921Z,79.30
2022-09-13T01:08:20.351Z,79.30
2022-09-13T01:08:29.776Z,79.40
2022-09-13T01:08:39.191Z,79.40
2022-09-13T01:08:48.604Z,79.30
2022-09-13T01:08:58.024Z,79.30
2022-09-13T01:09:16.870Z,79.10
2022-09-13T01:09:26.290Z,79.10
2022-09-13T01:09:35.709Z,79.00
2022-09-13T01:09:45.102Z,79.00
2022-09-13T01:09:54.504Z,79.00
2022-09-13T01:10:03.934Z,78.90
2022-09-13T01:10:13.353Z,79.00
2022-09-13T01:10:22.876Z,78.90
2022-09-13T01:10:32.297Z,78.60
2022-09-13T01:10:41.715Z,78.80
2022-09-13T01:10:51.125Z,78.70
2022-09-13T01:11:00.512Z,78.70
2022-09-13T01:11:09.963Z,78.60
2022-09-13T01:11:19.348Z,78.60
2022-09-13T01:11:28.766Z,78.60
2022-09-13T01:11:38.245Z,78.50
2022-09-13T01:11:57.093Z,78.40
2022-09-13T01:12:06.504Z,78.40
2022-09-13T01:12:15.925Z,78.30
2022-09-13T01:12:25.355Z,78.30
2022-09-13T01:12:34.782Z,78.20
2022-09-13T01:12:44.195Z,78.10
2022-09-13T01:12:53.593Z,77.90
2022-09-13T01:13:03.034Z,77.90
2022-09-13T01:13:12.491Z,77.90
2022-09-13T01:13:21.911Z,77.90
2022-09-13T01:13:31.340Z,77.80
2022-09-13T01:13:40.762Z,77.70
2022-09-13T01:13:50.232Z,77.70
2022-09-13T01:13:59.567Z,77.60
2022-09-13T01:14:09.020Z,77.50
2022-09-13T01:14:18.495Z,77.50
2022-09-13T01:14:28.041Z,77.40
2022-09-13T01:14:46.907Z,77.40
2022-09-13T01:14:56.331Z,77.40
2022-09-13T01:15:05.756Z,77.30
2022-09-13T01:15:15.217Z,77.30
2022-09-13T01:15:24.636Z,77.30
2022-09-13T01:15:34.074Z,77.20
2022-09-13T01:15:43.493Z,77.10
2022-09-13T01:15:52.923Z,76.90
2022-09-13T01:16:02.396Z,76.80
2022-09-13T01:16:11.891Z,76.60
2022-09-13T01:16:21.250Z,76.70
2022-09-13T01:16:30.682Z,76.60
2022-09-13T01:16:40.139Z,76.60
2022-09-13T01:16:49.569Z,76.60
2022-09-13T01:16:58.902Z,76.60
2022-09-13T01:17:08.331Z,76.50
2022-09-13T01:17:27.258Z,76.50
2022-09-13T01:17:36.589Z,76.40
2022-09-13T01:17:46.003Z,76.40
2022-09-13T01:17:55.435Z,76.40
2022-09-13T01:18:04.854Z,76.40
2022-09-13T01:18:14.249Z,76.40
2022-09-13T01:18:23.650Z,76.40
2022-09-13T01:18:33.074Z,76.30
2022-09-13T01:18:42.508Z,76.30
2022-09-13T01:18:51.910Z,76.10
2022-09-13T01:19:01.328Z,76.00
2022-09-13T01:19:10.815Z,76.00
2022-09-13T01:19:20.213Z,76.00
2022-09-13T01:19:29.745Z,76.00
2022-09-13T01:19:39.166Z,76.00
2022-09-13T01:19:48.584Z,75.90
2022-09-13T01:19:58.004Z,75.80
2022-09-13T01:20:16.849Z,75.80
2022-09-13T01:20:26.244Z,75.60
2022-09-13T01:20:35.641Z,75.60
2022-09-13T01:20:45.062Z,75.50
2022-09-13T01:20:54.489Z,75.50
2022-09-13T01:21:03.910Z,75.40
2022-09-13T01:21:13.339Z,75.30
2022-09-13T01:21:22.747Z,75.20
2022-09-13T01:21:32.171Z,75.30
2022-09-13T01:21:41.571Z,75.30
2022-09-13T01:21:50.978Z,75.30
2022-09-13T01:22:00.376Z,75.20
2022-09-13T01:22:09.790Z,75.10
2022-09-13T01:22:19.181Z,75.00
2022-09-13T01:22:28.581Z,75.00
2022-09-13T01:22:37.989Z,74.90
2022-09-13T01:22:56.799Z,74.80
2022-09-13T01:23:06.216Z,74.70
2022-09-13T01:23:15.634Z,74.50
2022-09-13T01:23:25.045Z,74.40
2022-09-13T01:23:34.450Z,74.30
2022-09-13T01:23:43.857Z,74.20
2022-09-13T01:23:53.264Z,74.20
2022-09-13T01:24:02.671Z,74.20
2022-09-13T01:24:12.054Z,74.20
2022-09-13T01:24:21.451Z,74.10
2022-09-13T01:24:30.856Z,74.20
2022-09-13T01:24:40.263Z,74.10
2022-09-13T01:24:49.670Z,74.10
2022-09-13T01:24:59.107Z,74.20
2022-09-13T01:25:08.516Z,74.20
2022-09-13T01:25:27.310Z,74.00
2022-09-13T01:25:36.704Z,74.00
2022-09-13T01:25:46.121Z,74.00
2022-09-13T01:25:55.522Z,73.90
2022-09-13T01:26:04.944Z,73.90
2022-09-13T01:26:14.411Z,73.90
2022-09-13T01:26:23.881Z,73.70
2022-09-13T01:26:33.310Z,73.60
2022-09-13T01:26:42.769Z,73.50
2022-09-13T01:26:52.175Z,73.40
2022-09-13T01:27:01.589Z,73.40
2022-09-13T01:27:11.020Z,73.40
2022-09-13T01:27:20.434Z,73.40
2022-09-13T01:27:29.851Z,73.50
2022-09-13T01:27:39.251Z,73.40
2022-09-13T01:27:48.675Z,73.40
2022-09-13T01:27:58.078Z,73.50
2022-09-13T01:28:16.917Z,73.50
2022-09-13T01:28:26.321Z,73.50
2022-09-13T01:28:35.745Z,73.50
2022-09-13T01:28:45.163Z,73.30
2022-09-13T01:28:54.582Z,73.20
2022-09-13T01:29:03.997Z,73.10
2022-09-13T01:29:13.450Z,73.10
2022-09-13T01:29:22.850Z,73.10
2022-09-13T01:29:32.261Z,73.10
2022-09-13T01:29:41.685Z,73.10
2022-09-13T01:29:51.169Z,73.20
2022-09-13T01:30:00.593Z,73.00
2022-09-13T01:30:10.089Z,72.90
2022-09-13T01:30:19.500Z,72.90
2022-09-13T01:30:28.921Z,72.80
2022-09-13T01:30:38.319Z,72.80
2022-09-13T01:30:57.161Z,72.90
2022-09-13T01:31:06.579Z,72.90
2022-09-13T01:31:16.103Z,72.90
2022-09-13T01:31:25.555Z,72.90
2022-09-13T01:31:34.931Z,72.90
2022-09-13T01:31:44.377Z,73.00
2022-09-13T01:31:53.805Z,73.10
2022-09-13T01:32:03.260Z,73.20
2022-09-13T01:32:12.586Z,73.20
2022-09-13T01:32:22.015Z,73.40
2022-09-13T01:32:31.444Z,73.50
2022-09-13T01:32:40.857Z,73.50
2022-09-13T01:32:50.248Z,73.60
2022-09-13T01:32:59.651Z,73.60
2022-09-13T01:33:09.083Z,73.70
2022-09-13T01:33:18.516Z,73.80
2022-09-13T01:33:27.941Z,74.00
2022-09-13T01:33:46.775Z,74.10
2022-09-13T01:33:56.307Z,74.20
2022-09-13T01:34:05.764Z,74.30
2022-09-13T01:34:15.166Z,74.40
2022-09-13T01:34:24.583Z,74.50
2022-09-13T01:34:34.002Z,74.60
2022-09-13T01:34:43.431Z,74.70
2022-09-13T01:34:52.846Z,74.80
2022-09-13T01:35:02.335Z,74.80
2022-09-13T01:35:11.772Z,75.00
2022-09-13T01:35:21.181Z,75.10
2022-09-13T01:35:30.578Z,75.20
2022-09-13T01:35:39.985Z,75.40
2022-09-13T01:35:49.402Z,75.50
2022-09-13T01:35:58.825Z,75.70
2022-09-13T01:36:08.246Z,75.80
2022-09-13T01:36:27.063Z,76.10
2022-09-13T01:36:36.471Z,76.30
2022-09-13T01:36:45.895Z,76.40
2022-09-13T01:36:55.328Z,76.60
2022-09-13T01:37:04.762Z,76.70
2022-09-13T01:37:14.164Z,76.80
2022-09-13T01:37:23.574Z,76.90
2022-09-13T01:37:33.006Z,77.00
2022-09-13T01:37:42.425Z,77.20
2022-09-13T01:37:51.837Z,77.40
2022-09-13T01:38:01.305Z,77.50
2022-09-13T01:38:10.729Z,77.70
2022-09-13T01:38:20.139Z,77.80
2022-09-13T01:38:29.598Z,77.90
2022-09-13T01:38:39.017Z,78.10
2022-09-13T01:38:48.428Z,78.00
2022-09-13T01:39:07.246Z,78.30
2022-09-13T01:39:16.664Z,78.40
2022-09-13T01:39:26.082Z,78.60
2022-09-13T01:39:35.506Z,78.70
2022-09-13T01:39:44.982Z,78.80
2022-09-13T01:39:54.398Z,78.80
2022-09-13T01:40:03.889Z,78.80
2022-09-13T01:40:13.272Z,79.00
2022-09-13T01:40:22.717Z,79.10
2022-09-13T01:40:32.021Z,79.30
2022-09-13T01:40:41.452Z,79.40
2022-09-13T01:40:50.864Z,79.50
2022-09-13T01:41:04.544Z,79.70
2022-09-13T01:41:09.692Z,79.70
2022-09-13T01:41:22.685Z,79.80
2022-09-13T01:41:32.092Z,79.80
2022-09-13T01:41:41.513Z,80.00
2022-09-13T01:41:50.914Z,80.10
2022-09-13T01:42:00.317Z,80.20
2022-09-13T01:42:09.728Z,80.30
2022-09-13T01:42:19.129Z,80.50
2022-09-13T01:42:28.562Z,80.60
2022-09-13T01:42:37.958Z,80.70
2022-09-13T01:42:56.761Z,80.80
2022-09-13T01:43:06.172Z,80.90
2022-09-13T01:43:15.629Z,80.90
2022-09-13T01:43:25.053Z,81.00
2022-09-13T01:43:34.478Z,81.10
2022-09-13T01:43:43.881Z,81.10
2022-09-13T01:43:53.309Z,81.20
2022-09-13T01:44:02.712Z,81.10
2022-09-13T01:44:12.128Z,81.10
2022-09-13T01:44:21.547Z,81.10
2022-09-13T01:44:30.976Z,81.00
2022-09-13T01:44:40.375Z,80.80
2022-09-13T01:44:49.772Z,80.80
2022-09-13T01:44:59.234Z,80.80
2022-09-13T01:45:08.620Z,80.60
2022-09-13T01:45:18.023Z,80.40
2022-09-13T01:45:36.948Z,80.10
2022-09-13T01:45:46.292Z,79.80
2022-09-13T01:45:55.738Z,79.70
2022-09-13T01:46:05.141Z,79.60
2022-09-13T01:46:14.558Z,79.40
2022-09-13T01:46:23.925Z,79.30
2022-09-13T01:46:33.347Z,79.20
2022-09-13T01:46:42.791Z,79.10
2022-09-13T01:46:52.186Z,78.90
2022-09-13T01:47:01.593Z,78.70
2022-09-13T01:47:11.007Z,78.50
2022-09-13T01:47:20.431Z,78.40
2022-09-13T01:47:29.864Z,78.30
2022-09-13T01:47:39.305Z,78.20
2022-09-13T01:47:48.667Z,78.20
2022-09-13T01:47:58.074Z,78.00
2022-09-13T01:48:16.887Z,77.50
2022-09-13T01:48:26.285Z,77.20
2022-09-13T01:48:35.699Z,77.00
2022-09-13T01:48:45.127Z,76.80
2022-09-13T01:48:54.550Z,76.70
2022-09-13T01:49:03.970Z,76.60
2022-09-13T01:49:13.380Z,76.40
2022-09-13T01:49:22.799Z,76.20
2022-09-13T01:49:32.229Z,76.00
2022-09-13T01:49:41.634Z,76.00
2022-09-13T01:49:51.033Z,75.90
2022-09-13T01:50:00.446Z,75.60
2022-09-13T01:50:09.832Z,75.60
2022-09-13T01:50:19.243Z,75.50
2022-09-13T01:50:28.656Z,75.40
2022-09-13T01:50:38.069Z,75.20
2022-09-13T01:50:56.883Z,75.10
2022-09-13T01:51:06.285Z,75.00
2022-09-13T01:51:15.759Z,75.00
2022-09-13T01:51:25.189Z,75.10
2022-09-13T01:51:34.565Z,75.00
2022-09-13T01:51:43.977Z,74.80
2022-09-13T01:51:53.376Z,74.60
2022-09-13T01:52:02.773Z,74.50
2022-09-13T01:52:12.179Z,74.50
2022-09-13T01:52:21.599Z,74.30
2022-09-13T01:52:30.990Z,74.20
2022-09-13T01:52:40.411Z,74.10
2022-09-13T01:52:49.828Z,74.00
2022-09-13T01:52:59.235Z,74.00
2022-09-13T01:53:08.625Z,73.90
2022-09-13T01:53:18.031Z,73.80
2022-09-13T01:53:36.934Z,73.70
2022-09-13T01:53:46.342Z,73.70
2022-09-13T01:53:55.701Z,73.60
2022-09-13T01:54:05.115Z,73.60
2022-09-13T01:54:14.530Z,73.60
2022-09-13T01:54:23.929Z,73.60
2022-09-13T01:54:33.343Z,73.60
2022-09-13T01:54:42.789Z,73.60
2022-09-13T01:54:52.201Z,73.60
2022-09-13T01:55:01.623Z,73.60
2022-09-13T01:55:11.038Z,73.60
2022-09-13T01:55:20.434Z,73.60
2022-09-13T01:55:29.852Z,73.50
2022-09-13T01:55:39.249Z,73.50
2022-09-13T01:55:48.683Z,73.50
2022-09-13T01:55:58.102Z,73.60
2022-09-13T01:56:16.988Z,73.60
2022-09-13T01:56:26.411Z,73.60
2022-09-13T01:56:35.827Z,73.60
2022-09-13T01:56:45.242Z,73.60
2022-09-13T01:56:54.650Z,73.70
2022-09-13T01:57:04.074Z,73.90
2022-09-13T01:57:13.493Z,74.00
2022-09-13T01:57:22.935Z,74.10
2022-09-13T01:57:32.332Z,74.30
2022-09-13T01:57:41.741Z,74.50
2022-09-13T01:57:51.156Z,74.60
2022-09-13T01:58:00.579Z,74.80
2022-09-13T01:58:09.979Z,75.00
2022-09-13T01:58:19.400Z,75.20
2022-09-13T01:58:28.841Z,75.20
2022-09-13T01:58:38.244Z,75.50
2022-09-13T01:58:57.076Z,75.80
2022-09-13T01:59:06.504Z,75.90
2022-09-13T01:59:15.910Z,76.10
2022-09-13T01:59:25.328Z,76.30
2022-09-13T01:59:34.746Z,76.40
2022-09-13T01:59:44.142Z,76.50
2022-09-13T01:59:53.571Z,76.60
2022-09-13T02:00:02.966Z,76.80
2022-09-13T02:00:12.403Z,77.00
2022-09-13T02:00:21.792Z,77.10
2022-09-13T02:00:31.208Z,77.30
2022-09-13T02:00:40.631Z,77.40
2022-09-13T02:00:50.104Z,77.40
2022-09-13T02:00:59.533Z,77.50
2022-09-13T02:01:08.971Z,77.60
2022-09-13T02:01:18.491Z,77.70
2022-09-13T02:01:37.287Z,77.90
2022-09-13T02:01:46.603Z,78.10
2022-09-13T02:01:56.097Z,78.20
2022-09-13T02:02:05.536Z,78.30
2022-09-13T02:02:14.889Z,78.40
2022-09-13T02:02:24.295Z,78.50
2022-09-13T02:02:33.780Z,78.60
2022-09-13T02:02:43.239Z,78.70
2022-09-13T02:02:52.543Z,78.80
2022-09-13T02:03:01.963Z,79.00
2022-09-13T02:03:11.405Z,78.90
2022-09-13T02:03:20.869Z,79.00
2022-09-13T02:03:30.244Z,79.10
2022-09-13T02:03:39.659Z,79.30
2022-09-13T02:03:49.263Z,79.30
2022-09-13T02:03:58.474Z,79.40
2022-09-13T02:04:17.294Z,79.70
2022-09-13T02:04:26.708Z,79.80
2022-09-13T02:04:36.143Z,80.00
2022-09-13T02:04:45.598Z,80.20
2022-09-13T02:04:55.035Z,80.30
2022-09-13T02:05:04.440Z,80.30
2022-09-13T02:05:13.862Z,80.40
2022-09-13T02:05:23.253Z,80.50
2022-09-13T02:05:32.663Z,80.70
2022-09-13T02:05:42.078Z,80.90
2022-09-13T02:05:51.541Z,80.90
2022-09-13T02:06:00.955Z,81.10
2022-09-13T02:06:10.362Z,81.10
2022-09-13T02:06:19.779Z,81.20
2022-09-13T02:06:29.217Z,81.30
2022-09-13T02:06:38.630Z,81.50
2022-09-13T02:06:48.074Z,81.60
2022-09-13T02:07:06.908Z,82.00
2022-09-13T02:07:16.343Z,82.00
2022-09-13T02:07:25.777Z,82.00
2022-09-13T02:07:35.242Z,82.10
2022-09-13T02:07:44.652Z,82.20
2022-09-13T02:07:54.074Z,82.20
2022-09-13T02:08:03.491Z,82.30
2022-09-13T02:08:12.928Z,82.30
2022-09-13T02:08:22.312Z,82.40
2022-09-13T02:08:31.711Z,82.50
2022-09-13T02:08:41.117Z,82.70
2022-09-13T02:08:50.532Z,82.80